Terminal Aerodrome Forecast
Issued by NWS

Home | Current Version | Previous Version | Text Only | Print | Product List | Glossary On
Versions: 1 2 3 4 5 6 7 8 9 10 11 12 13 14 15
398
FTUS42 KJAX 240525
TAFCRG
TAF
KCRG 240525Z 2406/2506 00000KT P6SM SCT080
     FM241600 10009KT P6SM FEW050 FEW250
     FM250200 VRB02KT P6SM FEW250=

USA.gov is the U.S. government's official web portal to all federal, state and local government web resources and services.